Cosco Hellas — SVCL9 — position and weather

sailwx.info

Track history (hours):
 
Tides and Currents Weather Stations Pressure Air Temp Water Temp Dewpoint Dewpoint Depression Visibility Wind Speed Wind Dir Waves Ship Positions

Cosco Hellas

Last reported at 2017-Nov-06 02:31 UTC. Time now 2017-Nov-17 19:46 UTC.
Position N 24°01' E 118°35'.
Warning: this ship's position is 11 days out of date.

Length 351 m; draft 12.4 m.

Type: Cargo ship. MMSI: 241459000.

Date/timePositionNaut miles runAvg speedWind from/ knotsBaromVisibWave heightAir tempDewpointWater temp
2017-Nov-06 02:31N 24°01' E 118°35'1020.6
2017-Nov-06 02:00N 23°54' E 118°27'19918.3
2017-Nov-05 15:05N 22°14' E 115°19'218.7
2017-Nov-05 14:57N 22°14' E 115°17'818.8
2017-Nov-05 14:31N 22°14' E 115°07'1019.0
2017-Nov-05 14:00N 22°16' E 114°57'919.1
2017-Nov-05 13:31N 22°17' E 114°47'1019.4
2017-Nov-05 13:01N 22°19' E 114°37'918.6
2017-Nov-05 12:31N 22°25' E 114°29'511.0
2017-Nov-05 12:01N 22°30' E 114°26'815.6
2017-Nov-05 11:30N 22°34' E 114°19'3 5.5
2017-Nov-05 11:00N 22°34' E 114°16'0 0.1
2017-Nov-05 06:34N 22°34' E 114°16'0 0.0
2017-Nov-05 06:28N 22°34' E 114°16'0 0.0
2017-Nov-05 02:13N 22°34' E 114°16'0 0.0
2017-Nov-05 01:49N 22°34' E 114°16'0 0.0
2017-Nov-05 01:25N 22°34' E 114°16'0 0.0
2017-Nov-05 00:52N 22°34' E 114°16'0 0.0
2017-Nov-05 00:28N 22°34' E 114°16'0 0.0
2017-Nov-04 21:58N 22°34' E 114°16'0 0.0
2017-Nov-04 21:28N 22°34' E 114°16'0 0.0
2017-Nov-04 20:58N 22°34' E 114°16'0 0.0
2017-Nov-04 19:43N 22°34' E 114°16'0 0.0
2017-Nov-04 19:16N 22°34' E 114°16'0 0.0
2017-Nov-04 18:58N 22°34' E 114°16'0 0.0
2017-Nov-04 16:31N 22°34' E 114°16'0 0.0
2017-Nov-04 16:16N 22°34' E 114°16'0 0.0
2017-Nov-04 15:55N 22°34' E 114°16'0 0.0
2017-Nov-04 15:28N 22°34' E 114°16'0 0.0
2017-Nov-04 14:58N 22°34' E 114°16'0 0.0
2017-Nov-04 14:28N 22°34' E 114°16'0 0.0
2017-Nov-04 13:58N 22°34' E 114°16'0 0.0
2017-Nov-04 13:22N 22°34' E 114°16'0 0.0
2017-Nov-04 12:58N 22°34' E 114°16'0 0.0
2017-Nov-04 12:22N 22°34' E 114°16'0 0.0
2017-Nov-04 11:58N 22°34' E 114°16'0 0.0
2017-Nov-04 11:28N 22°34' E 114°16'0 0.0
2017-Nov-04 10:58N 22°34' E 114°16'0 0.0
2017-Nov-04 10:28N 22°34' E 114°16'0 0.0
2017-Nov-04 09:58N 22°34' E 114°16'0 0.0
2017-Nov-04 09:22N 22°34' E 114°16'0 0.0
2017-Nov-04 08:58N 22°34' E 114°16'0 0.0
2017-Nov-04 08:28N 22°34' E 114°16'0 0.1
2017-Nov-04 07:59N 22°34' E 114°16'1 2.7
2017-Nov-04 07:30N 22°34' E 114°17'511.0
2017-Nov-04 07:01N 22°32' E 114°23'612.8
2017-Nov-04 06:30N 22°28' E 114°27'3 4.6
2017-Nov-04 05:58N 22°25' E 114°27'0 0.8
2017-Nov-04 05:29N 22°25' E 114°28'0 0.6
2017-Nov-04 04:58N 22°25' E 114°28'0 0.7
2017-Nov-04 04:28N 22°25' E 114°29'0 0.8
2017-Nov-04 04:00N 22°25' E 114°28'1 1.0
2017-Nov-04 03:29N 22°24' E 114°28'0 1.0
2017-Nov-04 02:59N 22°25' E 114°28'0 0.8
2017-Nov-04 02:30N 22°25' E 114°28'1 2.6
2017-Nov-04 02:00N 22°24' E 114°29'4 7.7
2017-Nov-04 01:30N 22°20' E 114°29'5 9.8
2017-Nov-04 01:00N 22°15' E 114°28'5 9.8
2017-Nov-04 00:30N 22°11' E 114°26'4 8.8
2017-Nov-04 00:00N 22°07' E 114°24'5 9.5
2017-Nov-03 23:30N 22°07' E 114°19'10 8.0
2017-Nov-03 22:13N 22°13' E 114°10'2 7.6
2017-Nov-03 22:00N 22°14' E 114°09'6 9.6
2017-Nov-03 21:22N 22°20' E 114°07'1 0.0
2017-Nov-03 07:53N 22°20' E 114°07'5 7.6
2017-Nov-03 07:15N 22°15' E 114°08'312.6
2017-Nov-03 07:00N 22°13' E 114°10'4 7.7
2017-Nov-03 06:30N 22°10' E 114°13'3 5.4
2017-Nov-03 06:00N 22°07' E 114°12'5 9.7
2017-Nov-03 05:30N 22°07' E 114°07'5 9.8
2017-Nov-03 05:00N 22°03' E 114°04'510.6
2017-Nov-03 04:31N 21°60' E 113°60'510.2
2017-Nov-03 04:00N 21°59' E 113°54'4 8.8
2017-Nov-03 03:30N 22°03' E 113°51'4 7.7
2017-Nov-03 03:00N 22°07' E 113°51'510.6
2017-Nov-03 02:31N 22°12' E 113°49'815.9
2017-Nov-03 02:01N 22°20' E 113°48'714.6
2017-Nov-03 01:31N 22°27' E 113°45'714.8
2017-Nov-03 01:00N 22°34' E 113°43'510.7
2017-Nov-03 00:31N 22°39' E 113°41'0 0.5
2017-Nov-02 23:58N 22°39' E 113°41'0 0.0
2017-Nov-02 23:28N 22°39' E 113°41'0 0.0
2017-Nov-02 22:58N 22°39' E 113°41'0 0.0
2017-Nov-02 22:28N 22°39' E 113°41'0 0.0
2017-Nov-02 21:58N 22°39' E 113°41'0 0.0
2017-Nov-02 21:28N 22°39' E 113°41'0 0.0
2017-Nov-02 20:58N 22°39' E 113°41'0 0.0
2017-Nov-02 20:28N 22°39' E 113°41'0 0.0
2017-Nov-02 19:58N 22°39' E 113°41'0 0.0
2017-Nov-02 19:28N 22°39' E 113°41'0 0.0
2017-Nov-02 18:55N 22°39' E 113°41'0 0.0
2017-Nov-02 18:25N 22°39' E 113°41'0 0.0
2017-Nov-02 17:58N 22°39' E 113°41'0 0.0
2017-Nov-02 17:28N 22°39' E 113°41'0 0.0
2017-Nov-02 16:58N 22°39' E 113°41'0 0.0
2017-Nov-02 16:28N 22°39' E 113°41'0 0.0
2017-Nov-02 15:58N 22°39' E 113°41'0 0.0
2017-Nov-02 15:28N 22°39' E 113°41'0 0.0
2017-Nov-02 14:58N 22°39' E 113°41'0 0.0
2017-Nov-02 14:28N 22°39' E 113°41'0 0.0
2017-Nov-02 13:58N 22°39' E 113°41'0 0.0
2017-Nov-02 13:28N 22°39' E 113°41'0 0.0
2017-Nov-02 12:58N 22°39' E 113°41'0 0.0
2017-Nov-02 12:28N 22°39' E 113°41'0 0.0
2017-Nov-02 11:58N 22°39' E 113°41'0 0.0
2017-Nov-02 11:28N 22°39' E 113°41'0 0.0
2017-Nov-02 10:58N 22°39' E 113°41'0 0.4
2017-Nov-02 10:31N 22°38' E 113°41'3 6.1
2017-Nov-02 10:00N 22°36' E 113°43'510.8
2017-Nov-02 09:31N 22°31' E 113°45'713.3
2017-Nov-02 09:00N 22°24' E 113°46'714.4
2017-Nov-02 08:30N 22°17' E 113°48'917.2
2017-Nov-02 08:00N 22°09' E 113°51'510.3
2017-Nov-02 07:30N 22°04' E 113°51'4 8.8
2017-Nov-02 07:00N 21°59' E 113°51'815.1
2017-Nov-02 06:30N 21°52' E 113°51'611.7
2017-Nov-02 06:00N 21°47' E 113°54'815.7
2017-Nov-02 05:30N 21°47' E 114°03'916.3
2017-Nov-02 04:58N 21°49' E 114°12'1016.2
2017-Nov-02 04:19N 21°52' E 114°23'516.1
2017-Nov-02 04:00N 21°53' E 114°28'1316.1
2017-Nov-02 03:12N 21°56' E 114°42'316.3
2017-Nov-02 03:00N 21°57' E 114°45'816.2
2017-Nov-02 02:30N 21°59' E 114°54'916.0
2017-Nov-02 01:58N 22°00' E 115°03'816.1
2017-Nov-02 01:30N 22°02' E 115°10'816.3
2017-Nov-02 01:01N 22°04' E 115°19'816.2
2017-Nov-02 00:31N 22°06' E 115°27'816.7
2017-Nov-02 00:00N 22°08' E 115°36'1121.0
2017-Nov-01 23:29N 22°11' E 115°47'182 8.4
2017-Nov-01 01:59N 24°27' E 117°58'0 0.0
2017-Nov-01 01:26N 24°27' E 117°58'0 0.0
2017-Nov-01 00:56N 24°27' E 117°58'0 0.0
2017-Nov-01 00:26N 24°27' E 117°58'0 0.0
2017-Oct-31 23:53N 24°27' E 117°58'0 0.0
2017-Oct-31 23:26N 24°27' E 117°58'0 0.0
2017-Oct-31 21:53N 24°27' E 117°58'0 0.0
2017-Oct-31 21:23N 24°27' E 117°58'0 0.0
2017-Oct-31 19:59N 24°27' E 117°58'0 0.0
2017-Oct-31 19:29N 24°27' E 117°58'0 0.0
2017-Oct-31 18:59N 24°27' E 117°58'0 0.0
2017-Oct-31 18:11N 24°27' E 117°58'0 0.0
2017-Oct-31 17:56N 24°27' E 117°58'0 0.0
2017-Oct-31 17:18N 24°27' E 117°58'0 1.0
2017-Oct-31 17:00N 24°27' E 117°58'3 5.9
2017-Oct-31 16:31N 24°26' E 118°02'612.2
2017-Oct-31 16:00N 24°23' E 118°07'611.9
2017-Oct-31 15:30N 24°19' E 118°12'612.0
2017-Oct-31 14:59N 24°14' E 118°16'  
Track history (hours):
 
Tides and Currents Weather Stations Pressure Air Temp Water Temp Dewpoint Dewpoint Depression Visibility Wind Speed Wind Dir Waves Ship Positions

Cosco Hellas

Last reported at 2017-Nov-06 02:31 UTC. Time now 2017-Nov-17 19:46 UTC.
Position N 24°01' E 118°35'.
Warning: this ship's position is 11 days out of date.

Length 351 m; draft 12.4 m.

Type: Cargo ship. MMSI: 241459000.

Date/timePositionNaut miles runAvg speedWind from/ knotsBaromVisibWave heightAir tempDewpointWater temp
2017-Nov-06 02:31N 24°01' E 118°35'1020.6
2017-Nov-06 02:00N 23°54' E 118°27'19918.3
2017-Nov-05 15:05N 22°14' E 115°19'218.7
2017-Nov-05 14:57N 22°14' E 115°17'818.8
2017-Nov-05 14:31N 22°14' E 115°07'1019.0
2017-Nov-05 14:00N 22°16' E 114°57'919.1
2017-Nov-05 13:31N 22°17' E 114°47'1019.4
2017-Nov-05 13:01N 22°19' E 114°37'918.6
2017-Nov-05 12:31N 22°25' E 114°29'511.0
2017-Nov-05 12:01N 22°30' E 114°26'815.6
2017-Nov-05 11:30N 22°34' E 114°19'3 5.5
2017-Nov-05 11:00N 22°34' E 114°16'0 0.1
2017-Nov-05 06:34N 22°34' E 114°16'0 0.0
2017-Nov-05 06:28N 22°34' E 114°16'0 0.0
2017-Nov-05 02:13N 22°34' E 114°16'0 0.0
2017-Nov-05 01:49N 22°34' E 114°16'0 0.0
2017-Nov-05 01:25N 22°34' E 114°16'0 0.0
2017-Nov-05 00:52N 22°34' E 114°16'0 0.0
2017-Nov-05 00:28N 22°34' E 114°16'0 0.0
2017-Nov-04 21:58N 22°34' E 114°16'0 0.0
2017-Nov-04 21:28N 22°34' E 114°16'0 0.0
2017-Nov-04 20:58N 22°34' E 114°16'0 0.0
2017-Nov-04 19:43N 22°34' E 114°16'0 0.0
2017-Nov-04 19:16N 22°34' E 114°16'0 0.0
2017-Nov-04 18:58N 22°34' E 114°16'0 0.0
2017-Nov-04 16:31N 22°34' E 114°16'0 0.0
2017-Nov-04 16:16N 22°34' E 114°16'0 0.0
2017-Nov-04 15:55N 22°34' E 114°16'0 0.0
2017-Nov-04 15:28N 22°34' E 114°16'0 0.0
2017-Nov-04 14:58N 22°34' E 114°16'0 0.0
2017-Nov-04 14:28N 22°34' E 114°16'0 0.0
2017-Nov-04 13:58N 22°34' E 114°16'0 0.0
2017-Nov-04 13:22N 22°34' E 114°16'0 0.0
2017-Nov-04 12:58N 22°34' E 114°16'0 0.0
2017-Nov-04 12:22N 22°34' E 114°16'0 0.0
2017-Nov-04 11:58N 22°34' E 114°16'0 0.0
2017-Nov-04 11:28N 22°34' E 114°16'0 0.0
2017-Nov-04 10:58N 22°34' E 114°16'0 0.0
2017-Nov-04 10:28N 22°34' E 114°16'0 0.0
2017-Nov-04 09:58N 22°34' E 114°16'0 0.0
2017-Nov-04 09:22N 22°34' E 114°16'0 0.0
2017-Nov-04 08:58N 22°34' E 114°16'0 0.0
2017-Nov-04 08:28N 22°34' E 114°16'0 0.1
2017-Nov-04 07:59N 22°34' E 114°16'1 2.7
2017-Nov-04 07:30N 22°34' E 114°17'511.0
2017-Nov-04 07:01N 22°32' E 114°23'612.8
2017-Nov-04 06:30N 22°28' E 114°27'3 4.6
2017-Nov-04 05:58N 22°25' E 114°27'0 0.8
2017-Nov-04 05:29N 22°25' E 114°28'0 0.6
2017-Nov-04 04:58N 22°25' E 114°28'0 0.7
2017-Nov-04 04:28N 22°25' E 114°29'0 0.8
2017-Nov-04 04:00N 22°25' E 114°28'1 1.0
2017-Nov-04 03:29N 22°24' E 114°28'0 1.0
2017-Nov-04 02:59N 22°25' E 114°28'0 0.8
2017-Nov-04 02:30N 22°25' E 114°28'1 2.6
2017-Nov-04 02:00N 22°24' E 114°29'4 7.7
2017-Nov-04 01:30N 22°20' E 114°29'5 9.8
2017-Nov-04 01:00N 22°15' E 114°28'5 9.8
2017-Nov-04 00:30N 22°11' E 114°26'4 8.8
2017-Nov-04 00:00N 22°07' E 114°24'5 9.5
2017-Nov-03 23:30N 22°07' E 114°19'10 8.0
2017-Nov-03 22:13N 22°13' E 114°10'2 7.6
2017-Nov-03 22:00N 22°14' E 114°09'6 9.6
2017-Nov-03 21:22N 22°20' E 114°07'1 0.0
2017-Nov-03 07:53N 22°20' E 114°07'5 7.6
2017-Nov-03 07:15N 22°15' E 114°08'312.6
2017-Nov-03 07:00N 22°13' E 114°10'4 7.7
2017-Nov-03 06:30N 22°10' E 114°13'3 5.4
2017-Nov-03 06:00N 22°07' E 114°12'5 9.7
2017-Nov-03 05:30N 22°07' E 114°07'5 9.8
2017-Nov-03 05:00N 22°03' E 114°04'510.6
2017-Nov-03 04:31N 21°60' E 113°60'510.2
2017-Nov-03 04:00N 21°59' E 113°54'4 8.8
2017-Nov-03 03:30N 22°03' E 113°51'4 7.7
2017-Nov-03 03:00N 22°07' E 113°51'510.6
2017-Nov-03 02:31N 22°12' E 113°49'815.9
2017-Nov-03 02:01N 22°20' E 113°48'714.6
2017-Nov-03 01:31N 22°27' E 113°45'714.8
2017-Nov-03 01:00N 22°34' E 113°43'510.7
2017-Nov-03 00:31N 22°39' E 113°41'0 0.5
2017-Nov-02 23:58N 22°39' E 113°41'0 0.0
2017-Nov-02 23:28N 22°39' E 113°41'0 0.0
2017-Nov-02 22:58N 22°39' E 113°41'0 0.0
2017-Nov-02 22:28N 22°39' E 113°41'0 0.0
2017-Nov-02 21:58N 22°39' E 113°41'0 0.0
2017-Nov-02 21:28N 22°39' E 113°41'0 0.0
2017-Nov-02 20:58N 22°39' E 113°41'0 0.0
2017-Nov-02 20:28N 22°39' E 113°41'0 0.0
2017-Nov-02 19:58N 22°39' E 113°41'0 0.0
2017-Nov-02 19:28N 22°39' E 113°41'0 0.0
2017-Nov-02 18:55N 22°39' E 113°41'0 0.0
2017-Nov-02 18:25N 22°39' E 113°41'0 0.0
2017-Nov-02 17:58N 22°39' E 113°41'0 0.0
2017-Nov-02 17:28N 22°39' E 113°41'0 0.0
2017-Nov-02 16:58N 22°39' E 113°41'0 0.0
2017-Nov-02 16:28N 22°39' E 113°41'0 0.0
2017-Nov-02 15:58N 22°39' E 113°41'0 0.0
2017-Nov-02 15:28N 22°39' E 113°41'0 0.0
2017-Nov-02 14:58N 22°39' E 113°41'0 0.0
2017-Nov-02 14:28N 22°39' E 113°41'0 0.0
2017-Nov-02 13:58N 22°39' E 113°41'0 0.0
2017-Nov-02 13:28N 22°39' E 113°41'0 0.0
2017-Nov-02 12:58N 22°39' E 113°41'0 0.0
2017-Nov-02 12:28N 22°39' E 113°41'0 0.0
2017-Nov-02 11:58N 22°39' E 113°41'0 0.0
2017-Nov-02 11:28N 22°39' E 113°41'0 0.0
2017-Nov-02 10:58N 22°39' E 113°41'0 0.4
2017-Nov-02 10:31N 22°38' E 113°41'3 6.1
2017-Nov-02 10:00N 22°36' E 113°43'510.8
2017-Nov-02 09:31N 22°31' E 113°45'713.3
2017-Nov-02 09:00N 22°24' E 113°46'714.4
2017-Nov-02 08:30N 22°17' E 113°48'917.2
2017-Nov-02 08:00N 22°09' E 113°51'510.3
2017-Nov-02 07:30N 22°04' E 113°51'4 8.8
2017-Nov-02 07:00N 21°59' E 113°51'815.1
2017-Nov-02 06:30N 21°52' E 113°51'611.7
2017-Nov-02 06:00N 21°47' E 113°54'815.7
2017-Nov-02 05:30N 21°47' E 114°03'916.3
2017-Nov-02 04:58N 21°49' E 114°12'1016.2
2017-Nov-02 04:19N 21°52' E 114°23'516.1
2017-Nov-02 04:00N 21°53' E 114°28'1316.1
2017-Nov-02 03:12N 21°56' E 114°42'316.3
2017-Nov-02 03:00N 21°57' E 114°45'816.2
2017-Nov-02 02:30N 21°59' E 114°54'916.0
2017-Nov-02 01:58N 22°00' E 115°03'816.1
2017-Nov-02 01:30N 22°02' E 115°10'816.3
2017-Nov-02 01:01N 22°04' E 115°19'816.2
2017-Nov-02 00:31N 22°06' E 115°27'816.7
2017-Nov-02 00:00N 22°08' E 115°36'1121.0
2017-Nov-01 23:29N 22°11' E 115°47'182 8.4
2017-Nov-01 01:59N 24°27' E 117°58'0 0.0
2017-Nov-01 01:26N 24°27' E 117°58'0 0.0
2017-Nov-01 00:56N 24°27' E 117°58'0 0.0
2017-Nov-01 00:26N 24°27' E 117°58'0 0.0
2017-Oct-31 23:53N 24°27' E 117°58'0 0.0
2017-Oct-31 23:26N 24°27' E 117°58'0 0.0
2017-Oct-31 21:53N 24°27' E 117°58'0 0.0
2017-Oct-31 21:23N 24°27' E 117°58'0 0.0
2017-Oct-31 19:59N 24°27' E 117°58'0 0.0
2017-Oct-31 19:29N 24°27' E 117°58'0 0.0
2017-Oct-31 18:59N 24°27' E 117°58'0 0.0
2017-Oct-31 18:11N 24°27' E 117°58'0 0.0
2017-Oct-31 17:56N 24°27' E 117°58'0 0.0
2017-Oct-31 17:18N 24°27' E 117°58'0 1.0
2017-Oct-31 17:00N 24°27' E 117°58'3 5.9
2017-Oct-31 16:31N 24°26' E 118°02'612.2
2017-Oct-31 16:00N 24°23' E 118°07'611.9
2017-Oct-31 15:30N 24°19' E 118°12'612.0
2017-Oct-31 14:59N 24°14' E 118°16'  

Dump ship's entire track history